sensor_id;sensor_type;location;lat;lon;timestamp;temperature;humidity
15900;DHT22;8048;50.644;6.184;2023-05-19T00:01:08;6.50;99.90
15900;DHT22;8048;50.644;6.184;2023-05-19T00:03:34;6.30;99.90
15900;DHT22;8048;50.644;6.184;2023-05-19T00:06:05;6.30;99.90
15900;DHT22;8048;50.644;6.184;2023-05-19T00:08:33;6.30;99.90
15900;DHT22;8048;50.644;6.184;2023-05-19T00:11:00;6.20;99.90
15900;DHT22;8048;50.644;6.184;2023-05-19T00:13:26;6.20;99.90
15900;DHT22;8048;50.644;6.184;2023-05-19T00:15:52;6.20;99.90
15900;DHT22;8048;50.644;6.184;2023-05-19T00:18:18;6.10;99.90
15900;DHT22;8048;50.644;6.184;2023-05-19T00:20:43;6.10;99.90
15900;DHT22;8048;50.644;6.184;2023-05-19T00:23:09;6.10;99.90
15900;DHT22;8048;50.644;6.184;2023-05-19T00:25:35;6.10;99.90
15900;DHT22;8048;50.644;6.184;2023-05-19T00:28:01;6.00;99.90
15900;DHT22;8048;50.644;6.184;2023-05-19T00:30:28;6.00;99.90
15900;DHT22;8048;50.644;6.184;2023-05-19T00:32:54;5.90;99.90
15900;DHT22;8048;50.644;6.184;2023-05-19T00:35:20;5.90;99.90
15900;DHT22;8048;50.644;6.184;2023-05-19T00:37:46;5.80;99.90
15900;DHT22;8048;50.644;6.184;2023-05-19T00:40:11;5.80;99.90
15900;DHT22;8048;50.644;6.184;2023-05-19T00:42:37;5.80;99.90
15900;DHT22;8048;50.644;6.184;2023-05-19T00:45:03;5.80;99.90
15900;DHT22;8048;50.644;6.184;2023-05-19T00:47:29;5.70;99.90
15900;DHT22;8048;50.644;6.184;2023-05-19T00:49:55;5.70;99.90
15900;DHT22;8048;50.644;6.184;2023-05-19T00:52:20;5.70;99.90
15900;DHT22;8048;50.644;6.184;2023-05-19T00:54:46;5.60;99.90
15900;DHT22;8048;50.644;6.184;2023-05-19T00:57:13;5.60;99.90
15900;DHT22;8048;50.644;6.184;2023-05-19T00:59:39;5.50;99.90
15900;DHT22;8048;50.644;6.184;2023-05-19T01:02:05;5.60;99.90
15900;DHT22;8048;50.644;6.184;2023-05-19T01:04:32;5.50;99.90
15900;DHT22;8048;50.644;6.184;2023-05-19T01:07:00;5.50;99.90
15900;DHT22;8048;50.644;6.184;2023-05-19T01:09:26;5.50;99.90
15900;DHT22;8048;50.644;6.184;2023-05-19T01:11:52;5.40;99.90
15900;DHT22;8048;50.644;6.184;2023-05-19T01:14:18;5.40;99.90
15900;DHT22;8048;50.644;6.184;2023-05-19T01:17:15;5.40;99.90
15900;DHT22;8048;50.644;6.184;2023-05-19T01:25:47;5.30;99.90
15900;DHT22;8048;50.644;6.184;2023-05-19T01:31:25;5.20;99.90
15900;DHT22;8048;50.644;6.184;2023-05-19T01:33:52;5.10;99.90
15900;DHT22;8048;50.644;6.184;2023-05-19T01:36:19;5.10;99.90
15900;DHT22;8048;50.644;6.184;2023-05-19T01:38:48;5.00;99.90
15900;DHT22;8048;50.644;6.184;2023-05-19T01:41:14;5.00;99.90
15900;DHT22;8048;50.644;6.184;2023-05-19T01:43:40;5.00;99.90
15900;DHT22;8048;50.644;6.184;2023-05-19T01:46:07;5.00;99.90
15900;DHT22;8048;50.644;6.184;2023-05-19T01:48:33;5.00;99.90
15900;DHT22;8048;50.644;6.184;2023-05-19T01:50:59;4.90;99.90
15900;DHT22;8048;50.644;6.184;2023-05-19T01:53:25;4.90;99.90
15900;DHT22;8048;50.644;6.184;2023-05-19T01:55:53;4.90;99.90
15900;DHT22;8048;50.644;6.184;2023-05-19T01:58:45;4.90;99.90
15900;DHT22;8048;50.644;6.184;2023-05-19T02:01:32;4.90;99.90
15900;DHT22;8048;50.644;6.184;2023-05-19T02:09:22;4.80;99.90
15900;DHT22;8048;50.644;6.184;2023-05-19T02:11:53;4.80;99.90
15900;DHT22;8048;50.644;6.184;2023-05-19T02:14:39;4.70;99.90
15900;DHT22;8048;50.644;6.184;2023-05-19T02:17:05;4.80;99.90
15900;DHT22;8048;50.644;6.184;2023-05-19T02:19:35;4.70;99.90
15900;DHT22;8048;50.644;6.184;2023-05-19T02:22:01;4.50;99.90
15900;DHT22;8048;50.644;6.184;2023-05-19T02:24:26;4.50;99.90
15900;DHT22;8048;50.644;6.184;2023-05-19T02:26:52;4.50;99.90
15900;DHT22;8048;50.644;6.184;2023-05-19T02:29:19;4.50;99.90
15900;DHT22;8048;50.644;6.184;2023-05-19T02:31:44;4.50;99.90
15900;DHT22;8048;50.644;6.184;2023-05-19T02:34:10;4.50;99.90
15900;DHT22;8048;50.644;6.184;2023-05-19T02:36:38;4.50;99.90
15900;DHT22;8048;50.644;6.184;2023-05-19T02:39:05;4.50;99.90
15900;DHT22;8048;50.644;6.184;2023-05-19T02:41:30;4.50;99.90
15900;DHT22;8048;50.644;6.184;2023-05-19T02:43:56;4.40;99.90
15900;DHT22;8048;50.644;6.184;2023-05-19T02:46:22;4.40;99.90
15900;DHT22;8048;50.644;6.184;2023-05-19T02:48:48;4.40;99.90
15900;DHT22;8048;50.644;6.184;2023-05-19T02:51:13;4.40;99.90
15900;DHT22;8048;50.644;6.184;2023-05-19T02:53:39;4.40;99.90
15900;DHT22;8048;50.644;6.184;2023-05-19T02:56:05;4.40;99.90
15900;DHT22;8048;50.644;6.184;2023-05-19T02:58:30;4.40;99.90
15900;DHT22;8048;50.644;6.184;2023-05-19T03:00:56;4.30;99.90
15900;DHT22;8048;50.644;6.184;2023-05-19T03:03:21;4.30;99.90
15900;DHT22;8048;50.644;6.184;2023-05-19T03:05:47;4.30;99.90
15900;DHT22;8048;50.644;6.184;2023-05-19T03:08:13;4.20;99.90
15900;DHT22;8048;50.644;6.184;2023-05-19T03:10:38;4.30;99.90
15900;DHT22;8048;50.644;6.184;2023-05-19T03:13:04;4.30;99.90
15900;DHT22;8048;50.644;6.184;2023-05-19T03:15:30;4.20;99.90
15900;DHT22;8048;50.644;6.184;2023-05-19T03:17:56;4.10;99.90
15900;DHT22;8048;50.644;6.184;2023-05-19T03:20:22;4.10;99.90
15900;DHT22;8048;50.644;6.184;2023-05-19T03:22:49;4.10;99.90
15900;DHT22;8048;50.644;6.184;2023-05-19T03:25:15;4.00;99.90
15900;DHT22;8048;50.644;6.184;2023-05-19T03:27:41;4.00;99.90
15900;DHT22;8048;50.644;6.184;2023-05-19T03:30:07;4.10;99.90
15900;DHT22;8048;50.644;6.184;2023-05-19T03:32:33;4.10;99.90
15900;DHT22;8048;50.644;6.184;2023-05-19T03:35:02;4.00;99.90
15900;DHT22;8048;50.644;6.184;2023-05-19T03:37:28;4.00;99.90
15900;DHT22;8048;50.644;6.184;2023-05-19T03:39:53;3.90;99.90
15900;DHT22;8048;50.644;6.184;2023-05-19T03:42:19;3.80;99.90
15900;DHT22;8048;50.644;6.184;2023-05-19T03:44:44;3.90;99.90
15900;DHT22;8048;50.644;6.184;2023-05-19T03:47:10;3.90;99.90
15900;DHT22;8048;50.644;6.184;2023-05-19T03:49:36;3.90;99.90
15900;DHT22;8048;50.644;6.184;2023-05-19T03:52:01;3.90;99.90
15900;DHT22;8048;50.644;6.184;2023-05-19T03:54:27;3.90;99.90
15900;DHT22;8048;50.644;6.184;2023-05-19T03:56:53;3.90;99.90
15900;DHT22;8048;50.644;6.184;2023-05-19T03:59:19;3.90;99.90
15900;DHT22;8048;50.644;6.184;2023-05-19T04:01:44;3.90;99.90
15900;DHT22;8048;50.644;6.184;2023-05-19T04:04:10;4.00;99.90
15900;DHT22;8048;50.644;6.184;2023-05-19T04:06:36;3.90;99.90
15900;DHT22;8048;50.644;6.184;2023-05-19T04:09:02;3.80;99.90
15900;DHT22;8048;50.644;6.184;2023-05-19T04:11:35;4.00;99.90
15900;DHT22;8048;50.644;6.184;2023-05-19T04:14:01;4.00;99.90
15900;DHT22;8048;50.644;6.184;2023-05-19T04:16:26;4.00;99.90
15900;DHT22;8048;50.644;6.184;2023-05-19T04:18:52;4.00;99.90
15900;DHT22;8048;50.644;6.184;2023-05-19T04:21:18;4.00;99.90
15900;DHT22;8048;50.644;6.184;2023-05-19T04:23:43;4.00;99.90
15900;DHT22;8048;50.644;6.184;2023-05-19T04:26:09;4.00;99.90
15900;DHT22;8048;50.644;6.184;2023-05-19T04:28:34;4.10;99.90
15900;DHT22;8048;50.644;6.184;2023-05-19T04:31:03;4.10;99.90
15900;DHT22;8048;50.644;6.184;2023-05-19T04:33:35;4.10;99.90
15900;DHT22;8048;50.644;6.184;2023-05-19T04:36:00;4.20;99.90
15900;DHT22;8048;50.644;6.184;2023-05-19T04:38:29;4.20;99.90
15900;DHT22;8048;50.644;6.184;2023-05-19T04:40:55;4.20;99.90
15900;DHT22;8048;50.644;6.184;2023-05-19T04:43:21;4.30;99.90
15900;DHT22;8048;50.644;6.184;2023-05-19T04:45:47;4.40;99.90
15900;DHT22;8048;50.644;6.184;2023-05-19T04:48:14;4.40;99.90
15900;DHT22;8048;50.644;6.184;2023-05-19T04:50:40;4.40;99.90
15900;DHT22;8048;50.644;6.184;2023-05-19T04:53:07;4.50;99.90
15900;DHT22;8048;50.644;6.184;2023-05-19T04:55:33;4.50;99.90
15900;DHT22;8048;50.644;6.184;2023-05-19T04:57:59;4.60;99.90
15900;DHT22;8048;50.644;6.184;2023-05-19T05:00:25;4.60;99.90
15900;DHT22;8048;50.644;6.184;2023-05-19T05:02:50;4.80;99.90
15900;DHT22;8048;50.644;6.184;2023-05-19T05:05:16;4.90;99.90
15900;DHT22;8048;50.644;6.184;2023-05-19T05:07:42;5.00;99.90
15900;DHT22;8048;50.644;6.184;2023-05-19T05:10:08;5.00;99.90
15900;DHT22;8048;50.644;6.184;2023-05-19T05:12:34;5.10;99.90
15900;DHT22;8048;50.644;6.184;2023-05-19T05:15:00;5.20;99.90
15900;DHT22;8048;50.644;6.184;2023-05-19T05:17:26;5.30;99.90
15900;DHT22;8048;50.644;6.184;2023-05-19T05:19:52;5.40;99.90
15900;DHT22;8048;50.644;6.184;2023-05-19T05:22:18;5.50;99.90
15900;DHT22;8048;50.644;6.184;2023-05-19T05:24:44;5.70;99.90
15900;DHT22;8048;50.644;6.184;2023-05-19T05:27:10;5.80;99.90
15900;DHT22;8048;50.644;6.184;2023-05-19T05:29:35;5.90;99.90
15900;DHT22;8048;50.644;6.184;2023-05-19T05:32:01;6.00;99.90
15900;DHT22;8048;50.644;6.184;2023-05-19T05:34:27;6.10;99.90
15900;DHT22;8048;50.644;6.184;2023-05-19T05:36:52;6.30;99.90
15900;DHT22;8048;50.644;6.184;2023-05-19T05:39:18;6.40;99.90
15900;DHT22;8048;50.644;6.184;2023-05-19T05:41:44;6.60;99.90
15900;DHT22;8048;50.644;6.184;2023-05-19T05:44:09;6.70;99.90
15900;DHT22;8048;50.644;6.184;2023-05-19T05:46:35;6.80;99.90
15900;DHT22;8048;50.644;6.184;2023-05-19T05:49:00;7.00;99.90
15900;DHT22;8048;50.644;6.184;2023-05-19T05:51:26;7.10;99.90
15900;DHT22;8048;50.644;6.184;2023-05-19T05:53:53;7.20;99.90
15900;DHT22;8048;50.644;6.184;2023-05-19T05:56:20;7.30;99.90
15900;DHT22;8048;50.644;6.184;2023-05-19T05:58:46;7.40;99.90
15900;DHT22;8048;50.644;6.184;2023-05-19T06:01:11;7.50;99.90
15900;DHT22;8048;50.644;6.184;2023-05-19T06:03:41;7.80;99.90
15900;DHT22;8048;50.644;6.184;2023-05-19T06:06:09;8.00;99.90
15900;DHT22;8048;50.644;6.184;2023-05-19T06:08:35;8.20;99.90
15900;DHT22;8048;50.644;6.184;2023-05-19T06:11:01;8.50;99.90
15900;DHT22;8048;50.644;6.184;2023-05-19T06:13:33;8.70;99.90
15900;DHT22;8048;50.644;6.184;2023-05-19T06:15:58;8.80;99.60
15900;DHT22;8048;50.644;6.184;2023-05-19T06:18:24;8.90;99.40
15900;DHT22;8048;50.644;6.184;2023-05-19T06:20:49;9.00;98.80
15900;DHT22;8048;50.644;6.184;2023-05-19T06:23:15;9.00;98.60
15900;DHT22;8048;50.644;6.184;2023-05-19T06:25:40;9.00;98.40
15900;DHT22;8048;50.644;6.184;2023-05-19T06:28:06;9.10;98.50
15900;DHT22;8048;50.644;6.184;2023-05-19T06:30:31;9.20;98.50
15900;DHT22;8048;50.644;6.184;2023-05-19T06:32:57;9.20;98.40
15900;DHT22;8048;50.644;6.184;2023-05-19T06:35:23;9.30;98.00
15900;DHT22;8048;50.644;6.184;2023-05-19T06:37:48;9.40;98.20
15900;DHT22;8048;50.644;6.184;2023-05-19T06:40:14;9.50;97.90
15900;DHT22;8048;50.644;6.184;2023-05-19T06:42:39;9.60;97.20
15900;DHT22;8048;50.644;6.184;2023-05-19T06:45:05;9.70;97.50
15900;DHT22;8048;50.644;6.184;2023-05-19T06:47:31;10.00;95.90
15900;DHT22;8048;50.644;6.184;2023-05-19T06:49:56;10.20;96.30
15900;DHT22;8048;50.644;6.184;2023-05-19T06:52:23;10.20;95.70
15900;DHT22;8048;50.644;6.184;2023-05-19T06:54:49;10.30;95.70
15900;DHT22;8048;50.644;6.184;2023-05-19T06:57:15;10.40;95.50
15900;DHT22;8048;50.644;6.184;2023-05-19T06:59:40;10.50;95.50
15900;DHT22;8048;50.644;6.184;2023-05-19T07:02:08;10.50;94.90
15900;DHT22;8048;50.644;6.184;2023-05-19T07:04:34;10.60;94.70
15900;DHT22;8048;50.644;6.184;2023-05-19T07:07:00;10.70;94.30
15900;DHT22;8048;50.644;6.184;2023-05-19T07:09:25;10.70;94.20
15900;DHT22;8048;50.644;6.184;2023-05-19T07:11:51;10.80;93.80
15900;DHT22;8048;50.644;6.184;2023-05-19T07:14:16;11.00;94.50
15900;DHT22;8048;50.644;6.184;2023-05-19T07:16:42;11.20;93.90
15900;DHT22;8048;50.644;6.184;2023-05-19T07:19:07;11.30;94.00
15900;DHT22;8048;50.644;6.184;2023-05-19T07:21:33;11.40;93.60
15900;DHT22;8048;50.644;6.184;2023-05-19T07:23:58;11.50;92.70
15900;DHT22;8048;50.644;6.184;2023-05-19T07:26:24;11.60;92.50
15900;DHT22;8048;50.644;6.184;2023-05-19T07:28:51;11.70;92.80
15900;DHT22;8048;50.644;6.184;2023-05-19T07:31:16;11.70;92.60
15900;DHT22;8048;50.644;6.184;2023-05-19T07:33:42;11.80;92.50
15900;DHT22;8048;50.644;6.184;2023-05-19T07:36:07;12.00;91.70
15900;DHT22;8048;50.644;6.184;2023-05-19T07:38:33;12.10;91.50
15900;DHT22;8048;50.644;6.184;2023-05-19T07:40:59;12.20;91.40
15900;DHT22;8048;50.644;6.184;2023-05-19T07:43:25;12.30;91.70
15900;DHT22;8048;50.644;6.184;2023-05-19T07:45:51;12.40;91.00
15900;DHT22;8048;50.644;6.184;2023-05-19T07:48:18;12.50;91.00
15900;DHT22;8048;50.644;6.184;2023-05-19T07:50:46;12.60;90.30
15900;DHT22;8048;50.644;6.184;2023-05-19T07:53:12;12.70;90.20
15900;DHT22;8048;50.644;6.184;2023-05-19T07:55:38;12.80;90.00
15900;DHT22;8048;50.644;6.184;2023-05-19T07:58:03;12.90;90.00
15900;DHT22;8048;50.644;6.184;2023-05-19T08:00:29;13.00;89.20
15900;DHT22;8048;50.644;6.184;2023-05-19T08:02:54;13.10;89.20
15900;DHT22;8048;50.644;6.184;2023-05-19T08:05:21;13.30;89.40
15900;DHT22;8048;50.644;6.184;2023-05-19T08:07:47;13.50;88.40
15900;DHT22;8048;50.644;6.184;2023-05-19T08:10:12;13.60;87.90
15900;DHT22;8048;50.644;6.184;2023-05-19T08:12:38;13.70;87.10
15900;DHT22;8048;50.644;6.184;2023-05-19T08:15:04;13.70;87.00
15900;DHT22;8048;50.644;6.184;2023-05-19T08:17:29;13.90;86.50
15900;DHT22;8048;50.644;6.184;2023-05-19T08:19:55;13.90;85.30
15900;DHT22;8048;50.644;6.184;2023-05-19T08:22:21;14.10;86.10
15900;DHT22;8048;50.644;6.184;2023-05-19T08:24:46;14.30;86.30
15900;DHT22;8048;50.644;6.184;2023-05-19T08:27:14;14.50;84.20
15900;DHT22;8048;50.644;6.184;2023-05-19T08:29:40;14.60;84.40
15900;DHT22;8048;50.644;6.184;2023-05-19T08:32:06;14.80;84.70
15900;DHT22;8048;50.644;6.184;2023-05-19T08:34:31;15.00;84.10
15900;DHT22;8048;50.644;6.184;2023-05-19T08:36:57;15.10;82.50
15900;DHT22;8048;50.644;6.184;2023-05-19T08:39:24;15.10;82.30
15900;DHT22;8048;50.644;6.184;2023-05-19T08:41:54;15.30;83.50
15900;DHT22;8048;50.644;6.184;2023-05-19T08:44:20;15.50;83.10
15900;DHT22;8048;50.644;6.184;2023-05-19T08:46:46;15.70;84.10
15900;DHT22;8048;50.644;6.184;2023-05-19T08:49:13;15.90;80.60
15900;DHT22;8048;50.644;6.184;2023-05-19T08:51:52;16.10;78.90
15900;DHT22;8048;50.644;6.184;2023-05-19T08:54:24;16.20;78.10
15900;DHT22;8048;50.644;6.184;2023-05-19T08:56:53;16.40;80.40
15900;DHT22;8048;50.644;6.184;2023-05-19T08:59:20;16.60;77.20
15900;DHT22;8048;50.644;6.184;2023-05-19T09:01:46;16.80;76.60
15900;DHT22;8048;50.644;6.184;2023-05-19T09:04:13;17.00;76.80
15900;DHT22;8048;50.644;6.184;2023-05-19T09:06:39;17.20;77.70
15900;DHT22;8048;50.644;6.184;2023-05-19T09:09:05;17.30;75.50
15900;DHT22;8048;50.644;6.184;2023-05-19T09:11:32;17.50;77.40
15900;DHT22;8048;50.644;6.184;2023-05-19T09:13:58;17.60;74.80
15900;DHT22;8048;50.644;6.184;2023-05-19T09:16:24;17.50;69.60
15900;DHT22;8048;50.644;6.184;2023-05-19T09:18:56;17.60;72.70
15900;DHT22;8048;50.644;6.184;2023-05-19T09:21:28;17.50;71.10
15900;DHT22;8048;50.644;6.184;2023-05-19T09:24:04;17.60;74.20
15900;DHT22;8048;50.644;6.184;2023-05-19T09:26:38;17.80;73.40
15900;DHT22;8048;50.644;6.184;2023-05-19T09:29:15;18.10;72.70
15900;DHT22;8048;50.644;6.184;2023-05-19T09:34:14;18.70;70.80
15900;DHT22;8048;50.644;6.184;2023-05-19T09:36:40;18.70;68.80
15900;DHT22;8048;50.644;6.184;2023-05-19T09:39:13;18.40;65.50
15900;DHT22;8048;50.644;6.184;2023-05-19T09:41:39;18.20;65.70
15900;DHT22;8048;50.644;6.184;2023-05-19T09:44:04;17.80;62.40
15900;DHT22;8048;50.644;6.184;2023-05-19T09:46:31;17.50;67.20
15900;DHT22;8048;50.644;6.184;2023-05-19T09:48:58;17.50;68.80
15900;DHT22;8048;50.644;6.184;2023-05-19T09:51:24;17.70;65.40
15900;DHT22;8048;50.644;6.184;2023-05-19T09:53:51;17.70;68.90
15900;DHT22;8048;50.644;6.184;2023-05-19T09:56:17;18.20;71.00
15900;DHT22;8048;50.644;6.184;2023-05-19T09:58:48;18.70;72.60
15900;DHT22;8048;50.644;6.184;2023-05-19T10:01:14;19.40;70.30
15900;DHT22;8048;50.644;6.184;2023-05-19T10:03:40;19.60;69.30
15900;DHT22;8048;50.644;6.184;2023-05-19T10:06:06;19.70;67.40
15900;DHT22;8048;50.644;6.184;2023-05-19T10:08:33;19.30;65.20
15900;DHT22;8048;50.644;6.184;2023-05-19T10:10:59;19.60;71.30
15900;DHT22;8048;50.644;6.184;2023-05-19T10:13:26;19.90;67.20
15900;DHT22;8048;50.644;6.184;2023-05-19T10:15:53;20.40;70.80
15900;DHT22;8048;50.644;6.184;2023-05-19T10:18:20;20.50;63.90
15900;DHT22;8048;50.644;6.184;2023-05-19T10:20:48;19.90;62.20
15900;DHT22;8048;50.644;6.184;2023-05-19T10:23:14;19.40;63.70
15900;DHT22;8048;50.644;6.184;2023-05-19T10:25:40;19.50;67.10
15900;DHT22;8048;50.644;6.184;2023-05-19T10:28:10;19.90;68.70
15900;DHT22;8048;50.644;6.184;2023-05-19T10:30:45;20.30;68.10
15900;DHT22;8048;50.644;6.184;2023-05-19T10:33:14;20.70;66.80
15900;DHT22;8048;50.644;6.184;2023-05-19T10:38:55;21.00;65.60
15900;DHT22;8048;50.644;6.184;2023-05-19T10:41:45;21.10;62.30
15900;DHT22;8048;50.644;6.184;2023-05-19T10:47:08;21.10;62.80
15900;DHT22;8048;50.644;6.184;2023-05-19T10:49:36;20.90;60.60
15900;DHT22;8048;50.644;6.184;2023-05-19T10:52:02;20.70;61.40
15900;DHT22;8048;50.644;6.184;2023-05-19T10:54:43;21.00;65.90
15900;DHT22;8048;50.644;6.184;2023-05-19T10:57:15;21.20;59.20
15900;DHT22;8048;50.644;6.184;2023-05-19T10:59:41;21.10;63.70
15900;DHT22;8048;50.644;6.184;2023-05-19T11:02:09;21.30;66.10
15900;DHT22;8048;50.644;6.184;2023-05-19T11:04:53;21.50;62.40
15900;DHT22;8048;50.644;6.184;2023-05-19T11:07:22;21.70;66.20
15900;DHT22;8048;50.644;6.184;2023-05-19T11:09:52;21.90;63.90
15900;DHT22;8048;50.644;6.184;2023-05-19T11:12:22;22.20;63.10
15900;DHT22;8048;50.644;6.184;2023-05-19T11:14:50;22.70;61.30
15900;DHT22;8048;50.644;6.184;2023-05-19T11:17:18;22.90;61.40
15900;DHT22;8048;50.644;6.184;2023-05-19T11:19:55;23.20;59.40
15900;DHT22;8048;50.644;6.184;2023-05-19T11:22:23;23.10;59.30
15900;DHT22;8048;50.644;6.184;2023-05-19T11:24:50;23.10;62.00
15900;DHT22;8048;50.644;6.184;2023-05-19T11:30:00;22.90;62.40
15900;DHT22;8048;50.644;6.184;2023-05-19T11:32:31;23.20;61.00
15900;DHT22;8048;50.644;6.184;2023-05-19T11:35:00;23.20;61.40
15900;DHT22;8048;50.644;6.184;2023-05-19T11:37:26;23.00;59.20
15900;DHT22;8048;50.644;6.184;2023-05-19T11:39:55;22.50;61.30
15900;DHT22;8048;50.644;6.184;2023-05-19T11:42:22;22.80;59.40
15900;DHT22;8048;50.644;6.184;2023-05-19T11:44:48;22.80;57.50
15900;DHT22;8048;50.644;6.184;2023-05-19T11:47:14;23.00;64.40
15900;DHT22;8048;50.644;6.184;2023-05-19T11:49:50;23.20;66.30
15900;DHT22;8048;50.644;6.184;2023-05-19T11:52:22;23.00;58.50
15900;DHT22;8048;50.644;6.184;2023-05-19T11:54:48;23.10;61.30
15900;DHT22;8048;50.644;6.184;2023-05-19T11:57:13;23.00;59.80
15900;DHT22;8048;50.644;6.184;2023-05-19T11:59:40;23.40;64.50
15900;DHT22;8048;50.644;6.184;2023-05-19T12:02:23;23.80;59.60
15900;DHT22;8048;50.644;6.184;2023-05-19T12:04:53;24.20;62.50
15900;DHT22;8048;50.644;6.184;2023-05-19T12:07:21;24.20;57.90
15900;DHT22;8048;50.644;6.184;2023-05-19T12:09:51;24.10;63.50
15900;DHT22;8048;50.644;6.184;2023-05-19T12:12:19;24.20;62.10
15900;DHT22;8048;50.644;6.184;2023-05-19T12:14:46;24.50;62.60
15900;DHT22;8048;50.644;6.184;2023-05-19T12:17:13;24.20;58.80
15900;DHT22;8048;50.644;6.184;2023-05-19T12:19:41;24.00;57.20
15900;DHT22;8048;50.644;6.184;2023-05-19T12:22:07;24.10;58.70
15900;DHT22;8048;50.644;6.184;2023-05-19T12:24:35;24.40;58.40
15900;DHT22;8048;50.644;6.184;2023-05-19T12:27:23;24.10;58.50
15900;DHT22;8048;50.644;6.184;2023-05-19T12:29:52;24.10;59.70
15900;DHT22;8048;50.644;6.184;2023-05-19T12:32:22;24.30;59.50
15900;DHT22;8048;50.644;6.184;2023-05-19T12:34:48;24.60;60.30
15900;DHT22;8048;50.644;6.184;2023-05-19T12:37:14;25.10;58.00
15900;DHT22;8048;50.644;6.184;2023-05-19T12:39:41;25.20;58.60
15900;DHT22;8048;50.644;6.184;2023-05-19T12:42:08;25.50;59.70
15900;DHT22;8048;50.644;6.184;2023-05-19T12:44:45;25.80;57.00
15900;DHT22;8048;50.644;6.184;2023-05-19T12:47:12;25.80;61.60
15900;DHT22;8048;50.644;6.184;2023-05-19T12:52:24;25.40;53.20
15900;DHT22;8048;50.644;6.184;2023-05-19T12:55:06;25.00;55.70
15900;DHT22;8048;50.644;6.184;2023-05-19T12:57:40;25.00;53.90
15900;DHT22;8048;50.644;6.184;2023-05-19T13:00:07;25.10;57.00
15900;DHT22;8048;50.644;6.184;2023-05-19T13:02:53;25.30;56.30
15900;DHT22;8048;50.644;6.184;2023-05-19T13:05:21;25.30;55.80
15900;DHT22;8048;50.644;6.184;2023-05-19T13:08:01;25.60;57.30
15900;DHT22;8048;50.644;6.184;2023-05-19T13:10:28;26.00;55.90
15900;DHT22;8048;50.644;6.184;2023-05-19T13:12:54;26.10;57.00
15900;DHT22;8048;50.644;6.184;2023-05-19T13:15:25;26.00;53.20
15900;DHT22;8048;50.644;6.184;2023-05-19T13:17:51;25.40;51.30
15900;DHT22;8048;50.644;6.184;2023-05-19T13:20:18;24.90;51.30
15900;DHT22;8048;50.644;6.184;2023-05-19T13:22:43;25.00;53.50
15900;DHT22;8048;50.644;6.184;2023-05-19T13:25:09;25.40;55.00
15900;DHT22;8048;50.644;6.184;2023-05-19T13:27:35;25.90;55.90
15900;DHT22;8048;50.644;6.184;2023-05-19T13:30:01;26.20;52.30
15900;DHT22;8048;50.644;6.184;2023-05-19T13:32:27;26.30;53.90
15900;DHT22;8048;50.644;6.184;2023-05-19T13:34:53;26.80;57.90
15900;DHT22;8048;50.644;6.184;2023-05-19T13:37:18;26.50;51.10
15900;DHT22;8048;50.644;6.184;2023-05-19T13:39:44;26.10;52.20
15900;DHT22;8048;50.644;6.184;2023-05-19T13:42:10;25.90;52.70
15900;DHT22;8048;50.644;6.184;2023-05-19T13:44:35;25.50;53.50
15900;DHT22;8048;50.644;6.184;2023-05-19T13:47:01;25.60;53.40
15900;DHT22;8048;50.644;6.184;2023-05-19T13:49:26;25.10;52.80
15900;DHT22;8048;50.644;6.184;2023-05-19T13:51:55;25.00;54.90
15900;DHT22;8048;50.644;6.184;2023-05-19T13:54:21;25.50;53.60
15900;DHT22;8048;50.644;6.184;2023-05-19T13:56:46;26.00;53.40
15900;DHT22;8048;50.644;6.184;2023-05-19T13:59:13;26.40;52.20
15900;DHT22;8048;50.644;6.184;2023-05-19T14:01:38;26.40;51.30
15900;DHT22;8048;50.644;6.184;2023-05-19T14:04:04;26.50;54.20
15900;DHT22;8048;50.644;6.184;2023-05-19T14:06:29;26.80;53.70
15900;DHT22;8048;50.644;6.184;2023-05-19T14:08:55;27.20;53.60
15900;DHT22;8048;50.644;6.184;2023-05-19T14:11:21;27.00;51.90
15900;DHT22;8048;50.644;6.184;2023-05-19T14:13:47;26.40;51.10
15900;DHT22;8048;50.644;6.184;2023-05-19T14:16:14;25.60;50.50
15900;DHT22;8048;50.644;6.184;2023-05-19T14:18:40;24.90;53.20
15900;DHT22;8048;50.644;6.184;2023-05-19T14:21:05;25.10;53.00
15900;DHT22;8048;50.644;6.184;2023-05-19T14:23:31;25.20;52.50
15900;DHT22;8048;50.644;6.184;2023-05-19T14:25:56;25.30;51.10
15900;DHT22;8048;50.644;6.184;2023-05-19T14:28:22;25.70;53.40
15900;DHT22;8048;50.644;6.184;2023-05-19T14:30:47;25.90;50.90
15900;DHT22;8048;50.644;6.184;2023-05-19T14:33:13;26.00;51.80
15900;DHT22;8048;50.644;6.184;2023-05-19T14:35:39;26.50;53.80
15900;DHT22;8048;50.644;6.184;2023-05-19T14:38:05;26.80;51.90
15900;DHT22;8048;50.644;6.184;2023-05-19T14:40:30;26.90;52.00
15900;DHT22;8048;50.644;6.184;2023-05-19T14:42:56;26.90;52.00
15900;DHT22;8048;50.644;6.184;2023-05-19T14:45:21;26.40;51.00
15900;DHT22;8048;50.644;6.184;2023-05-19T14:47:47;25.60;50.60
15900;DHT22;8048;50.644;6.184;2023-05-19T14:50:13;24.90;50.70
15900;DHT22;8048;50.644;6.184;2023-05-19T14:52:38;24.60;52.00
15900;DHT22;8048;50.644;6.184;2023-05-19T14:55:04;24.90;53.60
15900;DHT22;8048;50.644;6.184;2023-05-19T14:57:29;25.40;53.10
15900;DHT22;8048;50.644;6.184;2023-05-19T14:59:55;25.80;52.80
15900;DHT22;8048;50.644;6.184;2023-05-19T15:02:21;25.70;50.70
15900;DHT22;8048;50.644;6.184;2023-05-19T15:04:46;25.50;50.50
15900;DHT22;8048;50.644;6.184;2023-05-19T15:07:12;25.30;51.30
15900;DHT22;8048;50.644;6.184;2023-05-19T15:09:37;25.50;52.40
15900;DHT22;8048;50.644;6.184;2023-05-19T15:12:03;25.60;52.20
15900;DHT22;8048;50.644;6.184;2023-05-19T15:14:29;25.90;54.00
15900;DHT22;8048;50.644;6.184;2023-05-19T15:16:54;25.90;51.50
15900;DHT22;8048;50.644;6.184;2023-05-19T15:19:20;25.50;51.60
15900;DHT22;8048;50.644;6.184;2023-05-19T15:21:45;24.90;51.70
15900;DHT22;8048;50.644;6.184;2023-05-19T15:24:11;24.50;51.20
15900;DHT22;8048;50.644;6.184;2023-05-19T15:26:36;24.10;52.50
15900;DHT22;8048;50.644;6.184;2023-05-19T15:29:02;23.70;52.10
15900;DHT22;8048;50.644;6.184;2023-05-19T15:31:27;23.50;53.50
15900;DHT22;8048;50.644;6.184;2023-05-19T15:33:53;23.20;51.70
15900;DHT22;8048;50.644;6.184;2023-05-19T15:36:19;23.20;54.70
15900;DHT22;8048;50.644;6.184;2023-05-19T15:38:44;23.10;53.40
15900;DHT22;8048;50.644;6.184;2023-05-19T15:41:10;22.90;54.20
15900;DHT22;8048;50.644;6.184;2023-05-19T15:43:36;22.90;54.40
15900;DHT22;8048;50.644;6.184;2023-05-19T15:46:01;23.00;53.60
15900;DHT22;8048;50.644;6.184;2023-05-19T15:48:29;22.90;54.30
15900;DHT22;8048;50.644;6.184;2023-05-19T15:50:57;22.80;53.90
15900;DHT22;8048;50.644;6.184;2023-05-19T15:53:23;22.60;53.40
15900;DHT22;8048;50.644;6.184;2023-05-19T15:55:49;22.70;52.50
15900;DHT22;8048;50.644;6.184;2023-05-19T15:58:14;23.00;53.50
15900;DHT22;8048;50.644;6.184;2023-05-19T16:00:41;23.20;53.20
15900;DHT22;8048;50.644;6.184;2023-05-19T16:03:06;23.40;55.00
15900;DHT22;8048;50.644;6.184;2023-05-19T16:05:32;23.60;52.80
15900;DHT22;8048;50.644;6.184;2023-05-19T16:07:57;23.60;54.20
15900;DHT22;8048;50.644;6.184;2023-05-19T16:10:23;23.20;51.90
15900;DHT22;8048;50.644;6.184;2023-05-19T16:12:49;22.70;54.20
15900;DHT22;8048;50.644;6.184;2023-05-19T16:15:14;22.20;54.30
15900;DHT22;8048;50.644;6.184;2023-05-19T16:17:40;21.70;54.30
15900;DHT22;8048;50.644;6.184;2023-05-19T16:20:06;21.50;54.20